Time;durP1;ratioP1;P1;durP2;ratioP2;P2;SDS_P1;SDS_P2;PMS_P1;PMS_P2;Temp;Humidity;BMP_temperature;BMP_pressure;BME280_temperature;BME280_humidity;BME280_pressure;Samples;Min_cycle;Max_cycle;Signal;HPM_P1;HPM_P2
2022/11/04 00:01:33;;;;;;;23.90;11.95;;;;;;;14.09;53.94;95371.84;5048565;28;20036;-76
2022/11/04 00:03:58;;;;;;;22.88;11.48;;;;;;;14.15;53.78;95386.69;5033347;28;20091;-75
2022/11/04 00:06:24;;;;;;;22.30;11.30;;;;;;;14.27;53.89;95403.03;5050959;28;20392;-76
2022/11/04 00:08:51;;;;;;;25.02;11.15;;;;;;;13.79;54.34;95339.25;5035676;28;20029;-76
2022/11/04 00:14:01;;;;;;;23.75;10.55;;;;;;;14.18;54.46;95405.59;5054790;28;20043;-75
2022/11/04 00:19:10;;;;;;;25.88;10.90;;;;;;;13.44;54.44;95297.88;5055146;28;20118;-75
2022/11/04 00:30:03;;;;;;;21.90;11.27;;;;;;;13.55;54.72;95327.84;5053018;28;20086;-76
2022/11/04 00:35:15;;;;;;;21.58;11.23;;;;;;;13.52;55.37;95360.41;5040082;28;20549;-76
2022/11/04 00:37:42;;;;;;;20.13;11.38;;;;;;;13.51;55.26;95358.81;5030770;28;20296;-75
2022/11/04 00:40:09;;;;;;;25.52;11.77;;;;;;;13.71;55.52;95395.84;5050313;28;20083;-75
2022/11/04 00:42:35;;;;;;;23.95;11.75;;;;;;;13.52;55.55;95379.84;5044757;28;20033;-76
2022/11/04 00:45:01;;;;;;;28.50;11.77;;;;;;;13.63;55.73;95391.16;5032081;28;20057;-76
2022/11/04 00:47:27;;;;;;;19.75;11.55;;;;;;;13.19;56.56;95358.72;5052812;28;20032;-75
2022/11/04 00:49:52;;;;;;;27.27;12.02;;;;;;;13.18;56.22;95357.13;5052214;28;20091;-76
2022/11/04 00:52:18;;;;;;;23.30;11.43;;;;;;;13.37;56.53;95382.69;5051672;28;20470;-76
2022/11/04 00:54:44;;;;;;;22.60;12.13;;;;;;;13.21;56.68;95372.50;5033188;28;20040;-76
2022/11/04 00:57:13;;;;;;;25.05;12.27;;;;;;;13.16;56.52;95351.28;5050063;28;20040;-76
2022/11/04 00:59:39;;;;;;;22.63;11.68;;;;;;;13.25;56.70;95373.53;5032246;28;20033;-76
2022/11/04 01:02:09;;;;;;;25.40;12.65;;;;;;;13.14;56.88;95357.69;5050711;28;20039;-76
2022/11/04 01:04:34;;;;;;;30.90;13.23;;;;;;;13.17;57.02;95372.31;5032140;28;20045;-75
2022/11/04 01:07:01;;;;;;;24.92;11.95;;;;;;;13.19;56.87;95372.03;5049661;28;20033;-75
2022/11/04 01:09:26;;;;;;;25.00;12.25;;;;;;;13.17;56.88;95363.53;5049434;28;20120;-75
2022/11/04 01:11:52;;;;;;;29.33;12.45;;;;;;;12.84;57.13;95328.72;5032112;28;20036;-75
2022/11/04 01:14:18;;;;;;;30.17;11.85;;;;;;;13.11;57.22;95368.09;5031865;28;20442;-75
2022/11/04 01:16:43;;;;;;;26.00;13.05;;;;;;;12.85;57.37;95327.66;5049424;28;20036;-76
2022/11/04 01:19:09;;;;;;;24.10;13.15;;;;;;;12.85;56.96;95324.97;5049182;28;20090;-76
2022/11/04 01:21:35;;;;;;;27.35;12.15;;;;;;;13.08;56.90;95364.13;5025752;28;20406;-75
2022/11/04 01:24:00;;;;;;;34.92;13.60;;;;;;;12.91;56.97;95323.84;5034480;28;20033;-75
2022/11/04 01:26:27;;;;;;;28.20;13.07;;;;;;;13.06;57.12;95352.16;5049779;28;20056;-76
2022/11/04 01:28:55;;;;;;;28.35;13.18;;;;;;;13.06;57.03;95350.28;5049116;28;20123;-76
2022/11/04 01:31:23;;;;;;;28.20;13.05;;;;;;;12.93;57.26;95353.63;5031464;28;20033;-76
2022/11/04 01:33:50;;;;;;;28.02;14.10;;;;;;;12.92;56.76;95341.41;5031618;28;20521;-76
2022/11/04 01:36:17;;;;;;;30.25;13.23;;;;;;;12.69;57.47;95326.22;5030533;28;20495;-75
2022/11/04 01:38:43;;;;;;;25.90;13.05;;;;;;;12.70;57.56;95314.50;5027270;28;20507;-75
2022/11/04 01:41:15;;;;;;;29.92;12.80;;;;;;;12.87;57.56;95340.69;5049098;28;20035;-75
2022/11/04 01:44:03;;;;;;;31.45;13.38;;;;;;;12.80;57.67;95349.00;5030366;28;20087;-76
2022/11/04 01:46:36;;;;;;;26.40;13.30;;;;;;;12.85;57.46;95353.47;5030399;28;20061;-75
2022/11/04 01:49:08;;;;;;;30.08;13.40;;;;;;;12.89;57.25;95349.94;5024831;28;20133;-76
2022/11/04 01:51:36;;;;;;;26.45;12.50;;;;;;;12.61;57.44;95303.69;5043998;28;20505;-75
2022/11/04 01:54:04;;;;;;;29.63;13.98;;;;;;;12.69;57.25;95320.91;5029918;28;20033;-75
2022/11/04 01:56:31;;;;;;;30.13;12.60;;;;;;;12.84;57.13;95339.38;5030776;28;20036;-75
2022/11/04 01:59:02;;;;;;;31.45;13.68;;;;;;;12.72;57.25;95318.47;5031217;28;20025;-75
2022/11/04 02:01:27;;;;;;;32.00;12.85;;;;;;;12.63;57.53;95316.72;5022437;28;20029;-75
2022/11/04 02:04:24;;;;;;;31.02;13.27;;;;;;;12.49;58.31;95337.09;5045925;28;20025;-75
2022/11/04 02:06:49;;;;;;;29.50;13.80;;;;;;;12.52;58.28;95336.50;5048739;28;20040;-75
2022/11/04 02:09:17;;;;;;;35.03;12.47;;;;;;;12.58;58.04;95343.38;5043714;28;20116;-76
2022/11/04 02:14:27;;;;;;;28.00;13.15;;;;;;;12.35;58.20;95302.38;5049339;28;20063;-75
2022/11/04 02:17:03;;;;;;;29.45;13.27;;;;;;;12.14;58.52;95277.03;5049080;28;20521;-75
2022/11/04 02:19:31;;;;;;;28.88;14.55;;;;;;;12.49;58.22;95329.09;5014807;28;20128;-77
2022/11/04 02:22:14;;;;;;;33.85;14.27;;;;;;;12.47;58.53;95329.38;5045934;28;20550;-76
2022/11/04 02:24:55;;;;;;;30.10;14.63;;;;;;;12.33;58.42;95315.16;5060503;28;20451;-75
2022/11/04 02:27:42;;;;;;;34.65;14.02;;;;;;;12.45;58.28;95328.06;5049126;28;20483;-75
2022/11/04 02:30:16;;;;;;;30.63;12.98;;;;;;;12.41;58.22;95322.53;5041923;28;20095;-75
2022/11/04 02:32:51;;;;;;;30.70;13.50;;;;;;;12.40;58.53;95323.59;5048736;28;20032;-75
2022/11/04 02:35:31;;;;;;;33.08;13.90;;;;;;;12.38;58.48;95320.41;5048163;28;20032;-76
2022/11/04 02:38:36;;;;;;;32.92;13.75;;;;;;;12.06;58.69;95290.94;5032278;28;20082;-76
2022/11/04 02:41:11;;;;;;;33.38;14.80;;;;;;;12.23;58.59;95329.34;5030847;28;20044;-76
2022/11/04 02:43:48;;;;;;;30.63;14.27;;;;;;;12.25;58.54;95315.75;5028648;28;20029;-77
2022/11/04 02:46:21;;;;;;;34.95;14.50;;;;;;;12.20;59.02;95316.63;5019923;28;20095;-76
2022/11/04 02:48:53;;;;;;;33.30;15.05;;;;;;;11.69;58.97;95235.69;5039798;28;20487;-76
2022/11/04 02:51:27;;;;;;;33.33;14.18;;;;;;;11.94;59.09;95278.03;5042145;28;20021;-77
2022/11/04 02:54:16;;;;;;;26.20;13.93;;;;;;;12.14;59.18;95317.72;5028281;28;20247;-76
2022/11/04 02:56:49;;;;;;;28.92;13.25;;;;;;;11.98;59.41;95292.31;5047727;28;20048;-75
2022/11/04 02:59:24;;;;;;;36.83;14.60;;;;;;;11.50;59.00;95225.75;5048709;28;20051;-75
2022/11/04 03:01:53;;;;;;;42.53;15.25;;;;;;;11.98;59.12;95300.28;5045472;28;20681;-76
2022/11/04 03:04:27;;;;;;;43.85;15.80;;;;;;;11.92;59.03;95282.81;5052289;28;20036;-75
2022/11/04 03:06:56;;;;;;;37.22;15.20;;;;;;;11.63;59.01;95234.94;5048148;28;20084;-75
2022/11/04 03:09:22;;;;;;;33.90;15.18;;;;;;;11.84;59.01;95268.25;5050341;28;20523;-75
2022/11/04 03:11:54;;;;;;;41.10;15.63;;;;;;;11.49;59.07;95220.72;5069974;28;20024;-75
2022/11/04 03:14:28;;;;;;;32.30;15.18;;;;;;;11.88;59.20;95284.47;5071546;28;20036;-75
2022/11/04 03:17:00;;;;;;;38.80;16.02;;;;;;;11.66;59.32;95268.94;5053707;28;20129;-75
2022/11/04 03:19:28;;;;;;;37.35;15.93;;;;;;;11.91;59.03;95292.66;5053785;28;20039;-75
2022/11/04 03:22:11;;;;;;;35.45;14.57;;;;;;;11.60;59.29;95251.41;5071546;28;20033;-75
2022/11/04 03:24:38;;;;;;;36.00;15.52;;;;;;;11.72;59.48;95280.31;5053050;28;20029;-75
2022/11/04 03:27:12;;;;;;;40.42;17.52;;;;;;;11.90;59.63;95316.88;5052518;28;20032;-75
2022/11/04 03:30:05;;;;;;;39.17;17.25;;;;;;;11.52;59.60;95249.34;5070053;28;20490;-75
2022/11/04 03:33:04;;;;;;;29.38;15.55;;;;;;;11.73;60.37;95314.56;5067316;28;20103;-75
2022/11/04 03:35:30;;;;;;;36.08;14.85;;;;;;;11.66;60.63;95307.97;5050654;28;20028;-75
2022/11/04 03:37:56;;;;;;;42.88;16.42;;;;;;;11.33;60.70;95267.81;5052561;28;20037;-75
2022/11/04 03:40:22;;;;;;;36.10;17.17;;;;;;;11.47;60.67;95284.72;5071471;28;20032;-75
2022/11/04 03:43:05;;;;;;;38.67;17.20;;;;;;;11.04;61.09;95246.50;5060151;28;20090;-75
2022/11/04 03:45:31;;;;;;;42.83;16.80;;;;;;;11.46;61.58;95309.69;5051710;28;20138;-75
2022/11/04 03:47:57;;;;;;;36.60;17.27;;;;;;;11.33;61.58;95283.75;5067926;28;20553;-75
2022/11/04 03:50:29;;;;;;;33.83;16.35;;;;;;;11.59;61.17;95318.91;5035824;28;20112;-75
2022/11/04 03:52:56;;;;;;;51.25;18.08;;;;;;;11.64;60.87;95316.22;5050905;28;20043;-75
2022/11/04 03:55:33;;;;;;;41.47;18.02;;;;;;;11.51;60.95;95296.41;5050962;28;20029;-75
2022/11/04 03:58:10;;;;;;;38.30;16.85;;;;;;;11.33;60.94;95270.47;5051455;28;20051;-76
2022/11/04 04:00:47;;;;;;;38.78;16.30;;;;;;;11.20;61.04;95249.88;5031803;28;20043;-75
2022/11/04 04:03:17;;;;;;;39.90;17.83;;;;;;;11.57;61.23;95316.53;5047357;28;20033;-75
2022/11/04 04:05:57;;;;;;;40.08;17.77;;;;;;;11.54;61.33;95305.66;5050810;28;20103;-76
2022/11/04 04:08:42;;;;;;;37.38;18.40;;;;;;;11.51;60.94;95309.69;5043853;28;20036;-75
2022/11/04 04:11:18;;;;;;;46.50;18.42;;;;;;;11.32;61.29;95274.19;5032569;28;20111;-75
2022/11/04 04:14:11;;;;;;;33.45;16.50;;;;;;;11.46;61.61;95307.03;5032069;28;20021;-75
2022/11/04 04:16:46;;;;;;;32.13;17.30;;;;;;;11.28;61.16;95280.34;5044238;28;20103;-75
2022/11/04 04:19:19;;;;;;;31.33;17.38;;;;;;;11.21;61.26;95270.03;5022727;28;20430;-75
2022/11/04 04:21:59;;;;;;;34.10;18.42;;;;;;;11.22;61.63;95279.56;5047385;28;20033;-76
2022/11/04 04:27:30;;;;;;;37.33;18.40;;;;;;;11.37;61.99;95305.22;5043601;28;20098;-75
2022/11/04 04:29:57;;;;;;;39.50;17.30;;;;;;;11.38;61.54;95307.63;5049619;28;20037;-75
2022/11/04 04:32:27;;;;;;;38.95;18.90;;;;;;;11.26;61.86;95280.63;5025042;28;20095;-75
2022/11/04 04:35:40;;;;;;;41.53;19.38;;;;;;;11.24;62.36;95282.75;5036878;28;20033;-75
2022/11/04 04:37:43;;;;;;;33.78;17.85;;;;;;;11.18;62.02;95271.38;5045309;28;20026;-75
2022/11/04 04:45:48;;;;;;;44.75;18.23;;;;;;;10.96;61.64;95256.91;5048491;28;20068;-75
2022/11/04 04:48:13;;;;;;;;;;;;;;;11.19;61.61;95298.72;5042132;28;20491;-75
2022/11/04 04:50:47;;;;;;;37.33;17.17;;;;;;;11.04;62.24;95291.63;5049385;28;19998;-75
2022/11/04 04:53:13;;;;;;;44.50;20.05;;;;;;;10.87;62.02;95266.50;5045393;28;20550;-75
2022/11/04 04:55:38;;;;;;;42.55;19.85;;;;;;;11.10;62.41;95303.00;5049250;28;20120;-76
2022/11/04 04:58:04;;;;;;;40.88;19.33;;;;;;;11.01;62.91;95302.78;5025776;28;20135;-75
2022/11/04 05:00:29;;;;;;;38.95;20.20;;;;;;;10.88;63.23;95286.66;5043559;28;20037;-75
2022/11/04 05:02:54;;;;;;;40.85;19.83;;;;;;;10.61;62.84;95241.91;5037497;28;20413;-75
2022/11/04 05:05:21;;;;;;;42.10;18.92;;;;;;;10.82;63.62;95307.09;5031051;28;20037;-75
2022/11/04 05:07:47;;;;;;;42.00;20.35;;;;;;;10.93;63.56;95297.22;5045857;28;20089;-75
2022/11/04 05:10:15;;;;;;;34.38;19.35;;;;;;;11.00;63.48;95295.06;5026013;28;20131;-75
2022/11/04 05:15:26;;;;;;;36.85;21.30;;;;;;;10.80;63.50;95270.22;5032255;28;22146;-75
2022/11/04 05:17:59;;;;;;;64.57;21.75;;;;;;;10.96;64.63;95294.84;5043593;28;20041;-75
2022/11/04 05:20:25;;;;;;;58.00;22.35;;;;;;;10.90;64.14;95285.31;5012973;28;20033;-75
2022/11/04 05:22:51;;;;;;;49.60;23.02;;;;;;;10.66;63.82;95237.41;5030175;28;20033;-75
2022/11/04 05:25:16;;;;;;;46.22;22.75;;;;;;;11.19;64.26;95310.13;5010644;28;20040;-76
2022/11/04 05:27:42;;;;;;;51.13;24.45;;;;;;;11.24;63.93;95311.94;5044366;28;20106;-75
2022/11/04 05:30:08;;;;;;;45.67;23.48;;;;;;;11.08;63.84;95290.00;5016967;28;20036;-76
2022/11/04 05:32:33;;;;;;;56.85;24.13;;;;;;;11.30;63.97;95318.00;5017672;28;20029;-76
2022/11/04 05:34:59;;;;;;;67.90;26.25;;;;;;;11.35;63.82;95328.63;5014579;28;20032;-76
2022/11/04 05:37:25;;;;;;;56.40;24.33;;;;;;;11.37;63.81;95321.94;5036370;28;20059;-76
2022/11/04 05:39:50;;;;;;;53.67;25.45;;;;;;;10.99;63.82;95258.97;5022409;28;20519;-75
2022/11/04 05:42:16;;;;;;;60.10;24.77;;;;;;;11.29;63.44;95311.91;5001998;28;20033;-76
2022/11/04 05:44:42;;;;;;;60.25;25.55;;;;;;;11.48;63.74;95334.13;5014939;28;20052;-76
2022/11/04 05:47:08;;;;;;;51.42;25.20;;;;;;;11.41;63.57;95316.91;5021484;28;20045;-76
2022/11/04 05:49:33;;;;;;;65.55;25.40;;;;;;;11.38;63.94;95315.56;5029601;28;20442;-76
2022/11/04 05:51:59;;;;;;;58.45;26.33;;;;;;;11.32;63.61;95310.56;5022885;28;20047;-76
2022/11/04 05:54:25;;;;;;;66.20;25.63;;;;;;;11.21;63.81;95286.72;5019298;28;20503;-75
2022/11/04 05:56:50;;;;;;;68.63;26.23;;;;;;;11.45;64.09;95332.00;5013711;28;20125;-76
2022/11/04 05:59:16;;;;;;;54.90;24.85;;;;;;;11.51;64.15;95332.78;5023908;28;20033;-77
2022/11/04 06:01:42;;;;;;;54.97;25.73;;;;;;;11.55;63.86;95325.84;5008565;28;20029;-76
2022/11/04 06:04:13;;;;;;;47.90;24.27;;;;;;;11.72;64.13;95355.50;5007437;28;20748;-76
2022/11/04 06:06:39;;;;;;;54.25;23.50;;;;;;;11.62;64.06;95331.63;5027079;28;20032;-76
2022/11/04 06:09:04;;;;;;;59.63;25.95;;;;;;;11.64;64.18;95339.34;5007289;28;20450;-77
2022/11/04 06:11:30;;;;;;;55.60;25.52;;;;;;;11.78;64.26;95350.97;5003448;28;20160;-77
2022/11/04 06:13:56;;;;;;;59.28;25.98;;;;;;;11.52;64.50;95303.28;4995020;28;20306;-79
2022/11/04 06:16:23;;;;;;;49.25;25.63;;;;;;;11.46;64.25;95295.63;5027857;28;20033;-77
2022/11/04 06:18:48;;;;;;;51.63;25.83;;;;;;;11.63;64.25;95311.97;4992506;28;21514;-78
2022/11/04 06:21:13;;;;;;;60.03;25.02;;;;;;;11.93;64.48;95341.00;5025373;28;20040;-77
2022/11/04 06:23:43;;;;;;;56.10;26.40;;;;;;;11.54;64.51;95289.72;4997839;28;20041;-77
2022/11/04 06:26:10;;;;;;;51.92;26.98;;;;;;;11.79;64.77;95318.00;5019401;28;20463;-77
2022/11/04 06:28:35;;;;;;;49.67;25.63;;;;;;;11.85;64.56;95322.19;5020974;28;20029;-77
2022/11/04 06:31:02;;;;;;;57.97;26.80;;;;;;;12.06;64.91;95349.41;5029555;28;20036;-77
2022/11/04 06:33:29;;;;;;;66.97;26.92;;;;;;;11.98;65.19;95346.28;5021434;28;20038;-77
2022/11/04 06:35:58;;;;;;;58.33;28.40;;;;;;;11.72;64.98;95290.94;5034332;28;20658;-77
2022/11/04 06:38:23;;;;;;;50.45;27.00;;;;;;;11.65;65.13;95285.13;5007743;28;20041;-77
2022/11/04 06:40:49;;;;;;;47.83;26.05;;;;;;;11.81;64.96;95302.59;5032992;28;20024;-77
2022/11/04 06:43:14;;;;;;;45.60;27.67;;;;;;;12.07;64.77;95346.47;5016796;28;20099;-77
2022/11/04 06:45:40;;;;;;;55.45;27.63;;;;;;;12.06;64.70;95346.75;5022217;28;20129;-77
2022/11/04 06:48:06;;;;;;;56.25;28.77;;;;;;;12.18;64.86;95360.50;5023061;28;20132;-77
2022/11/04 06:50:31;;;;;;;57.42;29.58;;;;;;;12.28;64.70;95355.09;5016364;28;20522;-77
2022/11/04 06:52:57;;;;;;;61.08;28.80;;;;;;;12.07;64.33;95314.59;5028789;28;20034;-77
2022/11/04 06:55:23;;;;;;;61.63;29.42;;;;;;;12.29;64.26;95335.38;5002226;28;20503;-77
2022/11/04 06:57:48;;;;;;;64.72;29.10;;;;;;;11.86;63.77;95263.47;5000844;28;20041;-77
2022/11/04 07:00:14;;;;;;;55.10;29.20;;;;;;;12.47;64.04;95344.53;5017531;28;20029;-78
2022/11/04 07:02:39;;;;;;;63.47;30.63;;;;;;;12.48;63.97;95343.47;5012889;28;20288;-80
2022/11/04 07:05:06;;;;;;;59.78;30.13;;;;;;;12.22;63.58;95303.81;5002360;28;20102;-76
2022/11/04 07:07:31;;;;;;;62.13;30.70;;;;;;;12.56;63.81;95345.53;5006318;28;20479;-79
2022/11/04 07:09:57;;;;;;;62.72;29.70;;;;;;;12.49;63.76;95319.25;5014435;28;20029;-79
2022/11/04 07:12:23;;;;;;;58.58;30.50;;;;;;;12.08;64.19;95273.63;5012915;28;20025;-79
2022/11/04 07:14:49;;;;;;;61.92;29.60;;;;;;;12.38;64.31;95307.13;5006922;28;20075;-77
2022/11/04 07:17:15;;;;;;;66.15;33.05;;;;;;;12.56;63.91;95322.38;5008598;28;20047;-75
2022/11/04 07:19:40;;;;;;;62.38;32.13;;;;;;;12.54;64.05;95327.19;5006233;28;20037;-77
2022/11/04 07:22:07;;;;;;;54.67;30.48;;;;;;;12.38;63.81;95278.66;5031043;28;20025;-76
2022/11/04 07:24:33;;;;;;;63.00;30.35;;;;;;;12.76;63.22;95324.81;5021219;28;20063;-76
2022/11/04 07:26:58;;;;;;;57.75;29.83;;;;;;;12.47;63.01;95273.53;5017936;28;20033;-76
2022/11/04 07:29:24;;;;;;;53.47;29.25;;;;;;;12.53;63.42;95285.69;5011343;28;20033;-77
2022/11/04 07:31:50;;;;;;;58.25;29.33;;;;;;;12.67;63.63;95301.75;5021255;28;20038;-78
2022/11/04 07:34:15;;;;;;;66.05;30.58;;;;;;;12.52;63.73;95267.34;5008638;28;20033;-76
2022/11/04 07:36:40;;;;;;;55.67;28.70;;;;;;;12.49;63.62;95247.44;5017341;28;20028;-76
2022/11/04 07:39:06;;;;;;;58.95;30.20;;;;;;;12.52;63.61;95244.19;5036892;28;20033;-76
2022/11/04 07:41:31;;;;;;;53.58;26.60;;;;;;;12.30;63.25;95210.13;5040232;28;20439;-76
2022/11/04 07:43:57;;;;;;;51.28;27.65;;;;;;;12.92;63.15;95290.81;5030134;28;20033;-76
2022/11/04 07:46:23;;;;;;;50.67;28.77;;;;;;;13.09;63.00;95298.34;5009315;28;20052;-76
2022/11/04 07:48:49;;;;;;;51.08;27.67;;;;;;;13.09;62.74;95293.81;5029958;28;20044;-76
2022/11/04 07:51:17;;;;;;;63.25;29.42;;;;;;;12.99;63.30;95277.16;5023541;28;20463;-76
2022/11/04 07:53:46;;;;;;;49.58;26.15;;;;;;;12.96;63.73;95291.84;5013761;28;20810;-77
2022/11/04 07:56:12;;;;;;;51.15;27.65;;;;;;;12.62;63.47;95211.38;5001598;28;20656;-77
2022/11/04 07:58:38;;;;;;;56.72;28.55;;;;;;;13.24;62.94;95292.84;5015099;28;20041;-78
2022/11/04 08:01:09;;;;;;;54.72;28.23;;;;;;;13.28;63.15;95293.84;5017390;28;20041;-82
2022/11/04 08:03:35;;;;;;;59.88;29.35;;;;;;;12.27;62.96;95120.31;5011320;28;20538;-81
2022/11/04 08:06:03;;;;;;;47.97;27.02;;;;;;;12.85;63.89;95234.50;5014826;28;20033;-81
2022/11/04 08:08:32;;;;;;;53.80;27.52;;;;;;;13.33;63.96;95277.03;5007348;28;20034;-80
2022/11/04 08:11:10;;;;;;;57.33;29.38;;;;;;;13.36;63.72;95284.41;4993508;28;20763;-78
2022/11/04 08:13:37;;;;;;;64.70;28.67;;;;;;;13.06;63.37;95222.50;5001375;28;20033;-77
2022/11/04 08:16:05;;;;;;;56.67;29.63;;;;;;;13.32;62.86;95248.81;5033942;28;20037;-77
2022/11/04 08:18:31;;;;;;;54.30;27.45;;;;;;;13.25;62.78;95240.38;5025059;28;20047;-77
2022/11/04 08:20:57;;;;;;;51.13;26.92;;;;;;;13.57;62.66;95271.63;5014191;28;20068;-77
2022/11/04 08:23:23;;;;;;;49.25;26.45;;;;;;;13.65;62.19;95262.97;5024073;28;20040;-77
2022/11/04 08:25:48;;;;;;;54.65;27.90;;;;;;;13.45;62.10;95238.19;5010641;28;20102;-78
2022/11/04 08:28:17;;;;;;;59.88;27.63;;;;;;;13.36;62.43;95228.47;5001610;28;20098;-78
2022/11/04 08:30:54;;;;;;;56.50;27.38;;;;;;;13.28;62.11;95194.50;5033087;28;20044;-78
2022/11/04 08:33:19;;;;;;;47.97;25.23;;;;;;;13.79;61.68;95256.59;5030048;28;20052;-78
2022/11/04 08:35:44;;;;;;;56.85;26.88;;;;;;;13.59;61.16;95203.63;5032431;28;20108;-79
2022/11/04 08:38:10;;;;;;;52.78;26.63;;;;;;;13.74;61.19;95222.03;5001064;28;20098;-78
2022/11/04 08:40:35;;;;;;;61.28;26.63;;;;;;;14.05;60.79;95250.84;5009610;28;20032;-78
2022/11/04 08:43:01;;;;;;;57.53;29.33;;;;;;;14.00;60.66;95226.94;5010835;28;20116;-78
2022/11/04 08:45:27;;;;;;;53.25;26.52;;;;;;;13.87;61.17;95212.50;5010312;28;20658;-78
2022/11/04 08:47:52;;;;;;;50.83;26.20;;;;;;;13.77;60.84;95186.00;5009182;28;20378;-79
2022/11/04 08:50:18;;;;;;;49.28;26.90;;;;;;;14.05;60.64;95226.84;5011793;28;20033;-78
2022/11/04 08:52:44;;;;;;;53.38;26.95;;;;;;;13.90;60.28;95198.56;4996414;28;20819;-79
2022/11/04 08:55:09;;;;;;;62.33;29.27;;;;;;;14.00;60.30;95185.06;5007396;28;20070;-79
2022/11/04 08:57:35;;;;;;;63.15;28.35;;;;;;;14.10;60.60;95198.22;4986665;28;20045;-80
2022/11/04 09:00:01;;;;;;;53.67;27.70;;;;;;;14.29;60.79;95240.81;4990934;28;20078;-80
2022/11/04 09:02:27;;;;;;;55.53;27.27;;;;;;;14.09;60.33;95209.97;4997673;28;20640;-78
2022/11/04 09:04:52;;;;;;;51.17;27.23;;;;;;;13.80;60.36;95156.13;4998903;28;20037;-77
2022/11/04 09:07:17;;;;;;;46.80;26.90;;;;;;;14.00;59.93;95165.59;5005396;28;20038;-77
2022/11/04 09:09:43;;;;;;;50.03;27.85;;;;;;;14.15;60.34;95179.44;5004540;28;20079;-77
2022/11/04 09:12:10;;;;;;;51.47;27.52;;;;;;;14.54;60.01;95216.34;4993598;28;20068;-77
2022/11/04 09:14:35;;;;;;;50.03;27.05;;;;;;;14.48;59.46;95198.88;5007465;28;20056;-77
2022/11/04 09:17:01;;;;;;;56.45;28.08;;;;;;;13.98;59.56;95109.09;4991313;28;20033;-77
2022/11/04 09:19:27;;;;;;;49.80;26.60;;;;;;;14.76;59.50;95201.50;5002905;28;20048;-77
2022/11/04 09:21:53;;;;;;;50.13;26.45;;;;;;;14.46;59.13;95142.31;4998651;28;20394;-77
2022/11/04 09:24:18;;;;;;;55.03;27.38;;;;;;;14.51;58.37;95128.06;4994939;28;20033;-77
2022/11/04 09:26:44;;;;;;;59.70;28.25;;;;;;;14.92;58.18;95190.19;5015556;28;20042;-78
2022/11/04 09:29:09;;;;;;;52.10;27.00;;;;;;;14.67;57.70;95124.00;5013377;28;20041;-77
2022/11/04 09:31:36;;;;;;;55.30;27.25;;;;;;;14.80;56.98;95141.09;4994304;28;20034;-79
2022/11/04 09:34:01;;;;;;;45.42;25.08;;;;;;;14.95;56.76;95132.75;5004776;28;20037;-77
2022/11/04 09:36:28;;;;;;;52.72;25.58;;;;;;;15.20;55.32;95179.44;4995543;28;20029;-77
2022/11/04 09:38:54;;;;;;;49.40;24.25;;;;;;;15.40;55.47;95173.63;4992285;28;20480;-77
2022/11/04 09:41:22;;;;;;;52.42;26.60;;;;;;;15.56;55.40;95174.88;5008567;28;20100;-78
2022/11/04 09:43:52;;;;;;;63.95;26.52;;;;;;;15.54;55.93;95170.94;5005100;28;20107;-77
2022/11/04 09:46:19;;;;;;;54.83;26.17;;;;;;;15.15;55.02;95121.59;5015959;28;20633;-79
2022/11/04 09:48:49;;;;;;;63.05;27.63;;;;;;;15.44;54.96;95146.00;5015863;28;20467;-80
2022/11/04 09:51:19;;;;;;;60.13;26.52;;;;;;;15.66;55.02;95158.59;5013934;28;20438;-80
2022/11/04 09:53:59;;;;;;;51.70;25.65;;;;;;;16.05;54.29;95133.78;4994527;28;20472;-79
2022/11/04 09:56:32;;;;;;;50.67;24.13;;;;;;;16.21;53.18;95017.22;5017281;28;20037;-77
2022/11/04 09:58:57;;;;;;;55.53;25.20;;;;;;;17.93;50.18;95106.63;4991195;28;21558;-79
2022/11/04 10:01:39;;;;;;;51.65;24.38;;;;;;;18.96;47.34;95098.03;5011587;28;20043;-77
2022/11/04 10:04:19;;;;;;;41.25;21.35;;;;;;;20.30;44.80;95125.34;5013761;28;20456;-78
2022/11/04 10:07:30;;;;;;;45.75;22.75;;;;;;;21.15;41.76;95082.16;5016228;28;20044;-77
2022/11/04 10:10:17;;;;;;;49.20;22.88;;;;;;;21.72;40.74;95113.44;5013763;28;20741;-79
2022/11/04 10:13:05;;;;;;;50.00;23.33;;;;;;;22.36;39.53;95110.44;4999330;28;20124;-78
2022/11/04 10:15:53;;;;;;;47.17;22.38;;;;;;;22.66;38.09;95086.44;5001293;28;20151;-78
2022/11/04 10:18:40;;;;;;;43.80;21.92;;;;;;;23.06;37.88;95118.63;5019113;28;20634;-78
2022/11/04 10:21:28;;;;;;;31.98;18.73;;;;;;;22.88;37.21;95101.25;5000822;28;20404;-79
2022/11/04 10:24:22;;;;;;;41.08;18.05;;;;;;;22.83;36.60;95091.50;4985335;28;20053;-78
2022/11/04 10:26:51;;;;;;;34.40;17.83;;;;;;;22.59;37.54;95097.09;5019491;28;20037;-78
2022/11/04 10:29:29;;;;;;;34.30;17.38;;;;;;;22.13;38.23;95083.28;5003913;28;20199;-78
2022/11/04 10:31:58;;;;;;;41.58;18.10;;;;;;;21.83;37.57;95030.81;4998420;28;20030;-80
2022/11/04 10:34:36;;;;;;;38.03;16.48;;;;;;;21.95;38.13;95071.22;4993219;28;20065;-78
2022/11/04 10:37:03;;;;;;;45.30;18.05;;;;;;;21.75;38.13;95064.94;4995932;28;20418;-78
2022/11/04 10:39:33;;;;;;;35.42;16.77;;;;;;;21.59;38.76;95052.56;4993988;28;20026;-78
2022/11/04 10:41:59;;;;;;;31.58;14.90;;;;;;;21.17;39.25;95042.19;5005716;28;20508;-78
2022/11/04 10:44:29;;;;;;;28.63;15.48;;;;;;;20.91;39.10;95045.28;5016806;28;20069;-78
2022/11/04 10:47:21;;;;;;;30.90;16.67;;;;;;;20.42;39.72;95029.22;5038369;28;20047;-78
2022/11/04 10:49:58;;;;;;;37.95;15.88;;;;;;;20.45;40.60;95024.28;5013676;28;20368;-78
2022/11/04 10:52:25;;;;;;;40.20;15.95;;;;;;;20.32;41.34;95021.56;5011615;28;20044;-78
2022/11/04 10:54:51;;;;;;;39.03;17.92;;;;;;;20.21;41.49;95011.63;5038277;28;20068;-80
2022/11/04 10:57:20;;;;;;;34.63;16.70;;;;;;;20.26;41.26;95012.16;5035968;28;20755;-80
2022/11/04 10:59:52;;;;;;;38.50;17.95;;;;;;;20.36;41.02;95006.34;5014428;28;20060;-79
2022/11/04 11:02:18;;;;;;;34.17;16.52;;;;;;;20.25;41.18;94983.66;5015254;28;20040;-80
2022/11/04 11:04:46;;;;;;;43.92;17.42;;;;;;;20.50;41.20;94999.81;5016757;28;20074;-80
2022/11/04 11:07:21;;;;;;;35.35;16.45;;;;;;;20.53;40.72;94986.44;5033052;28;20051;-79
2022/11/04 11:09:47;;;;;;;37.10;16.95;;;;;;;20.48;41.59;94986.69;5000146;28;22097;-79
2022/11/04 11:12:12;;;;;;;32.75;16.98;;;;;;;20.22;40.75;94984.31;5015306;28;20029;-81
2022/11/04 11:14:40;;;;;;;38.40;17.95;;;;;;;20.72;40.41;94981.22;5014311;28;20292;-80
2022/11/04 11:17:14;;;;;;;34.00;17.00;;;;;;;21.07;40.50;94978.72;5028672;28;20566;-78
2022/11/04 11:19:54;;;;;;;45.55;17.13;;;;;;;21.17;40.46;94970.16;5011989;28;20165;-81
2022/11/04 11:22:39;;;;;;;41.28;17.77;;;;;;;21.49;39.28;94970.22;5028283;28;20036;-79
2022/11/04 11:25:27;;;;;;;31.83;17.65;;;;;;;21.81;38.65;94976.41;5008298;28;20203;-79
2022/11/04 11:27:58;;;;;;;42.53;17.88;;;;;;;21.80;38.97;94935.13;5012863;28;20033;-78
2022/11/04 11:30:27;;;;;;;38.85;17.52;;;;;;;22.05;38.34;94959.25;5005000;28;20041;-78
2022/11/04 11:32:59;;;;;;;34.42;16.58;;;;;;;22.20;37.79;94945.69;5006443;28;20033;-77
2022/11/04 11:35:31;;;;;;;35.70;14.27;;;;;;;22.29;37.32;94931.97;5012968;28;20037;-79
2022/11/04 11:37:59;;;;;;;26.30;14.60;;;;;;;22.11;37.10;94903.81;5023023;28;20179;-76
2022/11/04 11:40:30;;;;;;;32.00;14.45;;;;;;;22.09;37.21;94919.59;5014252;28;20511;-77
2022/11/04 11:42:59;;;;;;;32.08;15.43;;;;;;;22.10;37.61;94918.47;4996200;28;20094;-76
2022/11/04 11:45:26;;;;;;;32.47;15.68;;;;;;;22.15;37.39;94902.75;5008681;28;20419;-76
2022/11/04 11:47:55;;;;;;;38.45;16.02;;;;;;;22.21;37.63;94917.53;5018310;28;20094;-77
2022/11/04 11:50:24;;;;;;;35.95;14.93;;;;;;;21.99;37.55;94909.31;5006323;28;20045;-77
2022/11/04 11:52:54;;;;;;;28.25;13.90;;;;;;;22.01;37.10;94913.25;5020762;28;20033;-78
2022/11/04 11:55:29;;;;;;;34.33;15.02;;;;;;;21.79;37.01;94884.19;5014315;28;20056;-77
2022/11/04 11:58:18;;;;;;;27.60;13.50;;;;;;;21.89;37.47;94897.91;5023895;28;20107;-77
2022/11/04 12:01:08;;;;;;;31.27;14.95;;;;;;;21.16;39.14;94894.97;5029600;28;20037;-76